Time;durP1;ratioP1;P1;durP2;ratioP2;P2;SDS_P1;SDS_P2;PMS_P1;PMS_P2;Temp;Humidity;BMP_temperature;BMP_pressure;BME280_temperature;BME280_humidity;BME280_pressure;Samples;Min_cycle;Max_cycle;Signal;HPM_P1;HPM_P2
2021/12/23 00:02:16;;;;;;;25.80;14.30;;;1.10;99.90;;;;;;5003263;28;20037;-83
2021/12/23 00:04:46;;;;;;;23.17;14.10;;;1.10;99.90;;;;;;5004355;28;20061;-92
2021/12/23 00:07:14;;;;;;;22.65;13.75;;;1.10;99.90;;;;;;5004873;28;20168;-92
2021/12/23 00:12:16;;;;;;;21.75;13.88;;;1.00;99.90;;;;;;5021274;28;20048;-92
2021/12/23 00:14:43;;;;;;;20.80;12.68;;;1.00;99.90;;;;;;5019648;28;20025;-92
2021/12/23 00:29:23;;;;;;;24.60;13.52;;;1.00;99.90;;;;;;5037366;28;20028;-92
2021/12/23 00:31:52;;;;;;;22.98;14.05;;;1.00;99.90;;;;;;5045966;28;20026;-95
2021/12/23 00:34:18;;;;;;;21.83;13.63;;;1.00;99.90;;;;;;5037255;28;20029;-95
2021/12/23 00:36:45;;;;;;;20.77;13.38;;;1.10;99.90;;;;;;5051348;28;20040;-91
2021/12/23 00:39:13;;;;;;;27.77;13.55;;;1.10;99.90;;;;;;5035961;28;20025;-92
2021/12/23 00:41:43;;;;;;;20.48;12.88;;;1.00;99.90;;;;;;5056616;28;20444;-92
2021/12/23 00:44:10;;;;;;;24.17;13.32;;;1.10;99.90;;;;;;5023080;28;20029;-91
2021/12/23 00:46:36;;;;;;;21.75;12.63;;;1.00;99.90;;;;;;5021911;28;20367;-92
2021/12/23 00:49:02;;;;;;;22.10;13.57;;;1.00;99.90;;;;;;5038441;28;20083;-92
2021/12/23 00:51:30;;;;;;;22.70;12.73;;;1.00;99.90;;;;;;5022294;28;20057;-92
2021/12/23 00:54:04;;;;;;;23.58;13.13;;;0.90;99.90;;;;;;5022102;28;20091;-92
2021/12/23 00:56:35;;;;;;;22.20;12.57;;;0.90;99.90;;;;;;5023146;28;20025;-92
2021/12/23 00:59:02;;;;;;;25.02;13.38;;;0.90;99.90;;;;;;5021756;28;20021;-83
2021/12/23 01:01:28;;;;;;;22.77;13.43;;;0.90;99.90;;;;;;5037373;28;20119;-83
2021/12/23 01:03:54;;;;;;;21.63;13.23;;;0.90;99.90;;;;;;5036382;28;20052;-83
2021/12/23 01:06:21;;;;;;;25.65;15.05;;;0.90;99.90;;;;;;5020324;28;20025;-83
2021/12/23 01:08:47;;;;;;;21.23;12.45;;;1.00;99.90;;;;;;5020104;28;20033;-83
2021/12/23 01:11:13;;;;;;;21.63;13.00;;;0.90;99.90;;;;;;5020091;28;20044;-83
2021/12/23 01:13:48;;;;;;;24.80;14.32;;;0.90;99.90;;;;;;5020179;28;20052;-83
2021/12/23 01:16:25;;;;;;;23.55;14.25;;;0.90;99.90;;;;;;5037654;28;20037;-91
2021/12/23 01:18:54;;;;;;;22.25;13.63;;;0.90;99.90;;;;;;5041535;28;20025;-92
2021/12/23 01:21:22;;;;;;;24.15;14.10;;;0.90;99.90;;;;;;5040018;28;20021;-91
2021/12/23 01:23:52;;;;;;;24.08;13.80;;;1.00;99.90;;;;;;5034578;28;20038;-92
2021/12/23 01:26:20;;;;;;;28.47;15.50;;;1.00;99.90;;;;;;5033286;28;20046;-83
2021/12/23 01:28:49;;;;;;;23.65;14.52;;;1.00;99.90;;;;;;5000588;28;20036;-84
2021/12/23 01:31:15;;;;;;;23.88;14.35;;;1.00;99.90;;;;;;5016717;28;20112;-84
2021/12/23 01:33:41;;;;;;;20.67;13.05;;;1.10;99.90;;;;;;5038498;28;20052;-92
2021/12/23 01:36:07;;;;;;;23.52;14.20;;;1.10;99.90;;;;;;5018199;28;20088;-92
2021/12/23 01:38:33;;;;;;;25.98;13.77;;;1.00;99.90;;;;;;5017410;28;20026;-93
2021/12/23 01:41:00;;;;;;;24.25;14.10;;;1.00;99.90;;;;;;5017800;28;20048;-92
2021/12/23 01:43:26;;;;;;;21.55;13.13;;;1.00;99.90;;;;;;5018198;28;20047;-92
2021/12/23 01:45:54;;;;;;;23.08;13.75;;;1.00;99.90;;;;;;5001195;28;20025;-85
2021/12/23 01:48:20;;;;;;;22.98;13.77;;;1.00;99.90;;;;;;5000431;28;20052;-85
2021/12/23 01:50:47;;;;;;;23.60;13.68;;;1.00;99.90;;;;;;5017318;28;20097;-92
2021/12/23 01:53:14;;;;;;;23.02;14.77;;;1.10;99.90;;;;;;5035048;28;20044;-83
2021/12/23 01:55:42;;;;;;;26.55;14.85;;;1.00;99.90;;;;;;5017009;28;20028;-92
2021/12/23 01:58:12;;;;;;;23.92;14.48;;;1.00;99.90;;;;;;5018738;28;20529;-92
2021/12/23 02:00:44;;;;;;;25.45;15.02;;;1.00;99.90;;;;;;5000632;28;20045;-83
2021/12/23 02:03:11;;;;;;;21.23;13.93;;;1.00;99.90;;;;;;5016190;28;20021;-83
2021/12/23 02:05:37;;;;;;;22.45;14.10;;;1.10;99.90;;;;;;5033595;28;20459;-83
2021/12/23 02:08:03;;;;;;;25.33;14.55;;;1.10;99.90;;;;;;5016040;28;20025;-83
2021/12/23 02:10:29;;;;;;;22.80;14.45;;;1.00;99.90;;;;;;5032787;28;20103;-83
2021/12/23 02:12:56;;;;;;;24.10;14.18;;;1.00;99.90;;;;;;5015967;28;20097;-83
2021/12/23 02:15:21;;;;;;;24.75;13.63;;;1.00;99.90;;;;;;4999614;28;20041;-83
2021/12/23 02:17:51;;;;;;;21.65;12.95;;;1.10;99.90;;;;;;5015993;28;20033;-83
2021/12/23 02:20:24;;;;;;;25.80;14.02;;;1.10;99.90;;;;;;5015631;28;20036;-83
2021/12/23 02:22:54;;;;;;;20.73;13.23;;;1.10;99.90;;;;;;5033476;28;20096;-83
2021/12/23 02:25:20;;;;;;;26.08;15.35;;;1.10;99.90;;;;;;4999478;28;20537;-83
2021/12/23 02:27:47;;;;;;;23.40;13.38;;;1.10;99.90;;;;;;4999668;28;20034;-83
2021/12/23 02:30:27;;;;;;;23.92;15.05;;;1.10;99.90;;;;;;5015607;28;20033;-83
2021/12/23 02:32:56;;;;;;;22.00;13.33;;;1.10;99.90;;;;;;4999941;28;20088;-83
2021/12/23 02:35:23;;;;;;;24.15;13.48;;;1.10;99.90;;;;;;5015899;28;20104;-83
2021/12/23 02:37:50;;;;;;;27.35;14.00;;;1.10;99.90;;;;;;4999589;28;20037;-83
2021/12/23 02:40:43;;;;;;;24.27;14.68;;;1.10;99.90;;;;;;4999938;28;20056;-83
2021/12/23 02:43:13;;;;;;;28.67;14.18;;;1.10;99.90;;;;;;4997341;28;20042;-83
2021/12/23 02:45:40;;;;;;;24.02;15.10;;;1.00;99.90;;;;;;5032162;28;20049;-83
2021/12/23 02:48:14;;;;;;;26.25;14.50;;;1.00;99.90;;;;;;4999991;28;20040;-84
2021/12/23 02:50:41;;;;;;;25.73;13.95;;;1.10;99.90;;;;;;5015821;28;20022;-83
2021/12/23 02:53:08;;;;;;;25.50;14.65;;;1.10;99.90;;;;;;5017033;28;20022;-84
2021/12/23 02:55:33;;;;;;;26.17;15.45;;;1.10;99.90;;;;;;5017701;28;20518;-84
2021/12/23 02:57:59;;;;;;;26.83;14.23;;;1.00;99.90;;;;;;5003267;28;20060;-85
2021/12/23 03:00:26;;;;;;;23.73;14.63;;;1.10;99.90;;;;;;5001677;28;20033;-85
2021/12/23 03:02:52;;;;;;;25.42;15.07;;;1.00;99.90;;;;;;5002205;28;20038;-84
2021/12/23 03:05:21;;;;;;;23.88;13.85;;;1.00;99.90;;;;;;5035089;28;20036;-84
2021/12/23 03:07:54;;;;;;;23.80;13.65;;;1.00;99.90;;;;;;5016771;28;20387;-84
2021/12/23 03:10:22;;;;;;;24.08;14.15;;;0.90;99.90;;;;;;5015532;28;20037;-84
2021/12/23 03:12:49;;;;;;;23.67;13.82;;;0.90;99.90;;;;;;5017585;28;20037;-84
2021/12/23 03:15:18;;;;;;;22.55;13.45;;;0.80;99.90;;;;;;4999552;28;20049;-84
2021/12/23 03:17:44;;;;;;;25.25;14.95;;;0.90;99.90;;;;;;5000078;28;20112;-84
2021/12/23 03:20:12;;;;;;;23.73;13.57;;;0.90;99.90;;;;;;5000167;28;20056;-93
2021/12/23 03:22:39;;;;;;;21.80;13.75;;;0.80;99.90;;;;;;5002869;28;20033;-93
2021/12/23 03:25:06;;;;;;;23.48;13.57;;;0.80;99.90;;;;;;5025064;28;20047;-93
2021/12/23 03:27:35;;;;;;;24.50;15.20;;;0.80;99.90;;;;;;5012341;28;20041;-93
2021/12/23 03:30:03;;;;;;;22.52;13.98;;;0.70;99.90;;;;;;5020540;28;20079;-94
2021/12/23 03:32:30;;;;;;;25.17;14.52;;;0.70;99.90;;;;;;5017311;28;20022;-92
2021/12/23 03:34:57;;;;;;;27.25;14.73;;;0.80;99.90;;;;;;5005839;28;20101;-92
2021/12/23 03:37:23;;;;;;;24.75;14.98;;;0.80;99.90;;;;;;5023507;28;20026;-92
2021/12/23 03:39:53;;;;;;;28.77;15.13;;;0.80;99.90;;;;;;5022931;28;20036;-92
2021/12/23 03:42:19;;;;;;;23.40;14.73;;;0.80;99.90;;;;;;5020902;28;20360;-92
2021/12/23 03:44:46;;;;;;;27.75;14.55;;;0.80;99.90;;;;;;5029110;28;20028;-85
2021/12/23 03:47:12;;;;;;;27.10;16.08;;;0.80;99.90;;;;;;5019145;28;20040;-86
2021/12/23 03:49:38;;;;;;;25.27;14.80;;;0.80;99.90;;;;;;5003228;28;20116;-85
2021/12/23 03:52:04;;;;;;;27.10;15.50;;;0.80;99.90;;;;;;5003088;28;20097;-85
2021/12/23 03:54:32;;;;;;;26.20;15.38;;;0.80;99.90;;;;;;5002673;28;20025;-86
2021/12/23 03:56:58;;;;;;;24.58;15.48;;;0.80;99.90;;;;;;5002455;28;20029;-85
2021/12/23 03:59:24;;;;;;;26.65;16.13;;;0.80;99.90;;;;;;5002409;28;20474;-86
2021/12/23 04:01:50;;;;;;;26.10;14.57;;;0.80;99.90;;;;;;5002270;28;20064;-86
2021/12/23 04:04:15;;;;;;;23.77;14.40;;;0.70;99.90;;;;;;5004877;28;20025;-93
2021/12/23 04:06:41;;;;;;;24.30;14.85;;;0.70;99.90;;;;;;5025317;28;20032;-92
2021/12/23 04:09:10;;;;;;;23.60;14.68;;;0.70;99.90;;;;;;5013802;28;20056;-94
2021/12/23 04:11:37;;;;;;;27.70;14.77;;;0.70;99.90;;;;;;5002804;28;20121;-93
2021/12/23 04:14:03;;;;;;;26.17;15.20;;;0.70;99.90;;;;;;5000620;28;20085;-92
2021/12/23 04:16:29;;;;;;;27.85;16.73;;;0.60;99.90;;;;;;5002538;28;20026;-93
2021/12/23 04:18:55;;;;;;;24.75;14.60;;;0.70;99.90;;;;;;5003379;28;20033;-93
2021/12/23 04:21:22;;;;;;;26.33;14.52;;;0.70;99.90;;;;;;5003292;28;20034;-93
2021/12/23 04:23:49;;;;;;;27.80;14.73;;;0.70;99.90;;;;;;5019774;28;20030;-93
2021/12/23 04:26:15;;;;;;;24.33;14.50;;;0.60;99.90;;;;;;5003877;28;20057;-93
2021/12/23 04:28:46;;;;;;;26.00;15.25;;;0.60;99.90;;;;;;5003537;28;20356;-93
2021/12/23 04:31:18;;;;;;;26.58;15.07;;;0.60;99.90;;;;;;5004114;28;20038;-93
2021/12/23 04:33:45;;;;;;;28.02;15.73;;;0.50;99.90;;;;;;5025623;28;20116;-93
2021/12/23 04:36:11;;;;;;;25.38;14.82;;;0.60;99.90;;;;;;5022754;28;20466;-92
2021/12/23 04:38:40;;;;;;;24.17;13.30;;;0.60;99.90;;;;;;5060327;28;20033;-95
2021/12/23 04:41:08;;;;;;;24.95;14.05;;;0.50;99.90;;;;;;5026889;28;20508;-95
2021/12/23 04:43:34;;;;;;;25.17;14.50;;;0.60;99.90;;;;;;5040895;28;20029;-96
2021/12/23 04:46:00;;;;;;;25.38;15.30;;;0.60;99.90;;;;;;5006334;28;20036;-93
2021/12/23 04:48:28;;;;;;;28.83;16.15;;;0.60;99.90;;;;;;5039247;28;20029;-91
2021/12/23 04:50:55;;;;;;;28.30;15.60;;;0.50;99.90;;;;;;5022657;28;20087;-92
2021/12/23 04:53:21;;;;;;;25.65;15.77;;;0.60;99.90;;;;;;5022782;28;20057;-93
2021/12/23 04:55:48;;;;;;;28.15;15.15;;;0.60;99.90;;;;;;5039852;28;20017;-92
2021/12/23 04:58:14;;;;;;;29.75;16.10;;;0.60;99.90;;;;;;5040426;28;20021;-92
2021/12/23 05:00:42;;;;;;;24.30;15.70;;;0.60;99.90;;;;;;5043230;28;20025;-92
2021/12/23 05:03:08;;;;;;;28.73;16.13;;;0.70;99.90;;;;;;5051975;28;20029;-85
2021/12/23 05:05:35;;;;;;;31.27;16.63;;;0.70;99.90;;;;;;5036905;28;20040;-84
2021/12/23 05:08:01;;;;;;;33.55;17.60;;;0.70;99.90;;;;;;5020364;28;20033;-84
2021/12/23 05:10:27;;;;;;;30.23;15.57;;;0.70;99.90;;;;;;5020254;28;20482;-84
2021/12/23 05:12:54;;;;;;;28.55;15.68;;;0.70;99.90;;;;;;5021198;28;20035;-84
2021/12/23 05:15:20;;;;;;;26.88;15.88;;;0.80;99.90;;;;;;5036811;28;20382;-84
2021/12/23 05:17:47;;;;;;;28.02;16.20;;;0.70;99.90;;;;;;5020062;28;20021;-84
2021/12/23 05:20:18;;;;;;;26.92;15.05;;;0.70;99.90;;;;;;5036428;28;20032;-84
2021/12/23 05:22:44;;;;;;;25.80;15.05;;;0.80;99.90;;;;;;5036430;28;20363;-84
2021/12/23 05:25:10;;;;;;;26.10;15.52;;;0.70;99.90;;;;;;5035952;28;20103;-84
2021/12/23 05:27:38;;;;;;;29.13;16.80;;;0.70;99.90;;;;;;5036057;28;20044;-84
2021/12/23 05:30:08;;;;;;;27.38;16.02;;;0.70;99.90;;;;;;5037137;28;20025;-86
2021/12/23 05:32:33;;;;;;;28.95;17.05;;;0.80;99.90;;;;;;5036438;28;20021;-86
2021/12/23 05:34:59;;;;;;;32.33;18.45;;;0.80;99.90;;;;;;5054245;28;20032;-86
2021/12/23 05:37:25;;;;;;;27.50;14.88;;;0.80;99.90;;;;;;5019761;28;20033;-86
2021/12/23 05:39:53;;;;;;;29.05;15.98;;;0.80;99.90;;;;;;5036589;28;20033;-86
2021/12/23 05:42:19;;;;;;;29.55;17.20;;;0.80;99.90;;;;;;5036195;28;20116;-86
2021/12/23 05:44:46;;;;;;;30.23;16.98;;;0.80;99.90;;;;;;5035857;28;20098;-86
2021/12/23 05:47:12;;;;;;;30.92;17.35;;;0.80;99.90;;;;;;5036044;28;20036;-86
2021/12/23 05:49:39;;;;;;;26.08;16.38;;;0.80;99.90;;;;;;5036608;28;20021;-85
2021/12/23 05:52:05;;;;;;;27.38;16.58;;;0.80;99.90;;;;;;5036753;28;20075;-86
2021/12/23 05:54:31;;;;;;;32.05;17.00;;;0.80;99.90;;;;;;5019247;28;20437;-85
2021/12/23 05:57:01;;;;;;;33.75;18.27;;;0.80;99.90;;;;;;5035971;28;20017;-86
2021/12/23 05:59:29;;;;;;;35.58;18.17;;;0.80;99.90;;;;;;5020536;28;20146;-85
2021/12/23 06:01:55;;;;;;;33.72;18.67;;;0.80;99.90;;;;;;5037138;28;20029;-86
2021/12/23 06:04:20;;;;;;;30.65;17.65;;;0.80;99.90;;;;;;5019872;28;20059;-85
2021/12/23 06:06:46;;;;;;;34.75;18.33;;;0.80;99.90;;;;;;5020518;28;20427;-86
2021/12/23 06:09:12;;;;;;;29.83;17.27;;;0.80;99.90;;;;;;5123058;22;20484;-84
2021/12/23 06:11:38;;;;;;;31.55;17.30;;;0.80;99.90;;;;;;5054846;28;20052;-86
2021/12/23 06:14:03;;;;;;;34.60;17.42;;;0.80;99.90;;;;;;5021029;28;20460;-86
2021/12/23 06:16:29;;;;;;;34.38;18.50;;;0.70;99.90;;;;;;5020007;28;20472;-86
2021/12/23 06:18:55;;;;;;;31.90;16.92;;;0.70;99.90;;;;;;5031043;28;20021;-86
2021/12/23 06:21:22;;;;;;;30.35;17.25;;;0.70;99.90;;;;;;5010562;28;20040;-86
2021/12/23 06:23:48;;;;;;;30.40;17.08;;;0.70;99.90;;;;;;5051177;28;20494;-86
2021/12/23 06:26:13;;;;;;;30.60;17.27;;;0.70;99.90;;;;;;5037593;28;20116;-87
2021/12/23 06:28:39;;;;;;;31.35;16.75;;;0.70;99.90;;;;;;5034525;28;20017;-86
2021/12/23 06:31:05;;;;;;;31.60;16.38;;;0.70;99.90;;;;;;5035821;28;20029;-88
2021/12/23 06:33:30;;;;;;;30.42;16.52;;;0.70;99.90;;;;;;5035233;28;20033;-87
2021/12/23 06:35:56;;;;;;;30.63;17.65;;;0.70;99.90;;;;;;5027929;28;20030;-88
2021/12/23 06:38:22;;;;;;;34.50;18.63;;;0.60;99.90;;;;;;4998930;28;20112;-88
2021/12/23 06:40:47;;;;;;;32.85;19.02;;;0.60;99.90;;;;;;5016319;28;20029;-87
2021/12/23 06:43:13;;;;;;;35.33;17.50;;;0.70;99.90;;;;;;4999596;28;20026;-87
2021/12/23 06:45:39;;;;;;;30.58;17.92;;;0.70;99.90;;;;;;5031932;28;20045;-87
2021/12/23 06:48:05;;;;;;;32.72;18.23;;;0.60;99.90;;;;;;5015622;28;20018;-87
2021/12/23 06:50:30;;;;;;;36.45;18.60;;;0.60;99.90;;;;;;4999670;28;20075;-89
2021/12/23 06:52:58;;;;;;;33.17;19.08;;;0.60;99.90;;;;;;5033065;28;20044;-87
2021/12/23 06:55:24;;;;;;;32.22;18.65;;;0.70;99.90;;;;;;5016138;28;20107;-88
2021/12/23 06:57:55;;;;;;;33.35;18.90;;;0.70;99.90;;;;;;5002288;28;20041;-88
2021/12/23 07:00:21;;;;;;;34.45;18.23;;;0.70;99.90;;;;;;5004468;28;20045;-88
2021/12/23 07:02:46;;;;;;;32.28;18.02;;;0.80;99.90;;;;;;5020841;28;20018;-88
2021/12/23 07:05:13;;;;;;;33.92;18.67;;;0.80;99.90;;;;;;5036200;28;20069;-89
2021/12/23 07:10:28;;;;;;;31.15;17.42;;;0.80;99.90;;;;;;5038857;28;20055;-87
2021/12/23 07:12:54;;;;;;;;;;;0.80;99.90;;;;;;5038348;28;20068;-88
2021/12/23 07:15:20;;;;;;;34.65;18.92;;;0.90;99.90;;;;;;5037348;28;19909;-88
2021/12/23 07:17:46;;;;;;;33.60;18.55;;;0.80;99.90;;;;;;5035427;28;20032;-88
2021/12/23 07:20:12;;;;;;;33.80;18.77;;;0.90;99.90;;;;;;5018451;28;20473;-88
2021/12/23 07:22:38;;;;;;;30.08;17.33;;;0.80;99.90;;;;;;5035222;28;20029;-88
2021/12/23 07:25:04;;;;;;;37.30;19.15;;;0.90;99.90;;;;;;5018634;28;20030;-87
2021/12/23 07:27:30;;;;;;;35.33;17.90;;;0.90;99.90;;;;;;5002642;28;20038;-88
2021/12/23 07:29:58;;;;;;;34.05;17.85;;;0.90;99.90;;;;;;5018302;28;20034;-88
2021/12/23 07:32:24;;;;;;;32.67;18.00;;;0.90;99.90;;;;;;5001980;28;20036;-86
2021/12/23 07:34:50;;;;;;;33.90;18.58;;;0.90;99.90;;;;;;5034805;28;20287;-90
2021/12/23 07:37:16;;;;;;;35.45;19.65;;;0.90;99.90;;;;;;5014148;28;20068;-88
2021/12/23 07:39:41;;;;;;;33.58;17.58;;;1.00;99.90;;;;;;5033726;28;20079;-90
2021/12/23 07:42:07;;;;;;;31.85;17.77;;;1.00;99.90;;;;;;5021797;28;20021;-85
2021/12/23 07:44:34;;;;;;;35.20;18.30;;;1.00;99.90;;;;;;5056128;28;20028;-85
2021/12/23 07:47:03;;;;;;;33.85;17.83;;;1.00;99.90;;;;;;5021933;28;20064;-87
2021/12/23 07:49:28;;;;;;;31.95;18.05;;;1.00;99.90;;;;;;5056499;28;20021;-87
2021/12/23 07:51:55;;;;;;;34.95;19.10;;;1.00;99.90;;;;;;5036605;28;20091;-87
2021/12/23 07:54:20;;;;;;;33.38;18.17;;;1.00;99.90;;;;;;5055385;28;20041;-88
2021/12/23 07:56:47;;;;;;;35.53;18.50;;;1.00;99.90;;;;;;5038037;28;20028;-87
2021/12/23 07:59:13;;;;;;;34.58;18.90;;;1.00;99.90;;;;;;5021465;28;20021;-87
2021/12/23 08:01:39;;;;;;;33.92;18.20;;;1.00;99.90;;;;;;5038337;28;20048;-87
2021/12/23 08:04:04;;;;;;;32.40;18.30;;;1.00;99.90;;;;;;5021477;28;20025;-86
2021/12/23 08:06:31;;;;;;;30.60;18.52;;;1.10;99.90;;;;;;5043458;28;20451;-87
2021/12/23 08:08:56;;;;;;;33.85;18.20;;;1.10;99.90;;;;;;5038054;28;20523;-88
2021/12/23 08:11:22;;;;;;;30.85;17.17;;;1.00;99.90;;;;;;5051127;28;20037;-87
2021/12/23 08:13:48;;;;;;;35.28;18.70;;;1.10;99.90;;;;;;5035986;28;20134;-87
2021/12/23 08:16:15;;;;;;;33.78;17.85;;;1.00;99.90;;;;;;5044420;28;20053;-87
2021/12/23 08:18:41;;;;;;;34.17;18.10;;;1.10;99.90;;;;;;5040346;28;20469;-86
2021/12/23 08:21:06;;;;;;;34.72;19.35;;;1.10;99.90;;;;;;5038571;28;20032;-87
2021/12/23 08:23:32;;;;;;;31.33;18.13;;;1.00;99.90;;;;;;5022660;28;20029;-86
2021/12/23 08:26:04;;;;;;;34.67;19.35;;;1.00;99.90;;;;;;5039649;28;20025;-86
2021/12/23 08:28:31;;;;;;;30.45;17.45;;;1.00;99.90;;;;;;5038834;28;20492;-87
2021/12/23 08:30:58;;;;;;;31.48;17.45;;;1.00;99.90;;;;;;5017979;28;20040;-86
2021/12/23 08:33:24;;;;;;;33.33;17.60;;;1.00;99.90;;;;;;5038556;28;20053;-87
2021/12/23 08:35:50;;;;;;;35.60;18.85;;;1.10;99.90;;;;;;5039212;28;20630;-86
2021/12/23 08:38:16;;;;;;;32.83;19.23;;;1.00;99.90;;;;;;5056617;28;20021;-86
2021/12/23 08:40:42;;;;;;;34.35;19.10;;;1.00;99.90;;;;;;5037101;28;20033;-87
2021/12/23 08:43:07;;;;;;;34.17;19.25;;;1.00;99.90;;;;;;5012394;28;20116;-87
2021/12/23 08:45:36;;;;;;;37.53;17.83;;;1.00;99.90;;;;;;5034225;28;20030;-86
2021/12/23 08:48:02;;;;;;;35.50;18.60;;;1.00;99.90;;;;;;5018139;28;20024;-87
2021/12/23 08:50:30;;;;;;;36.75;19.42;;;0.90;99.90;;;;;;5051800;28;20040;-87
2021/12/23 08:52:56;;;;;;;37.85;19.00;;;1.00;99.90;;;;;;5051643;28;20104;-87
2021/12/23 08:55:25;;;;;;;36.10;18.15;;;1.00;99.90;;;;;;5016455;28;20028;-86
2021/12/23 08:57:51;;;;;;;35.10;18.88;;;1.00;99.90;;;;;;5039901;28;20043;-88
2021/12/23 09:00:18;;;;;;;34.00;18.73;;;1.00;99.90;;;;;;5022391;28;20484;-87
2021/12/23 09:02:46;;;;;;;33.10;18.42;;;1.00;99.90;;;;;;5034866;28;20152;-87
2021/12/23 09:05:12;;;;;;;35.67;19.02;;;1.00;99.90;;;;;;5021784;28;20040;-88
2021/12/23 09:07:38;;;;;;;39.05;19.80;;;1.00;99.90;;;;;;5036969;28;20009;-87
2021/12/23 09:10:05;;;;;;;36.28;18.65;;;1.00;99.90;;;;;;5023446;28;20099;-87
2021/12/23 09:12:31;;;;;;;38.30;20.65;;;1.00;99.90;;;;;;5001927;28;20038;-85
2021/12/23 09:14:57;;;;;;;36.03;19.73;;;1.00;99.90;;;;;;4985811;28;20030;-84
2021/12/23 09:17:22;;;;;;;34.22;19.20;;;1.00;99.90;;;;;;5002461;28;20392;-87
2021/12/23 09:19:48;;;;;;;35.92;20.05;;;1.10;99.90;;;;;;5018169;28;20112;-88
2021/12/23 09:22:14;;;;;;;37.88;19.88;;;1.10;99.90;;;;;;5001766;28;20041;-85
2021/12/23 09:24:44;;;;;;;38.80;20.00;;;1.10;99.90;;;;;;5002646;28;20033;-87
2021/12/23 09:34:53;;;;;;;33.47;19.17;;;1.10;99.90;;;;;;5021529;28;20065;-87
2021/12/23 09:37:19;;;;;;;35.08;19.00;;;1.20;99.90;;;;;;5018064;28;20029;-87
2021/12/23 09:39:52;;;;;;;34.67;20.45;;;1.20;99.90;;;;;;5018048;28;20036;-87
2021/12/23 09:42:20;;;;;;;35.22;20.27;;;1.20;99.90;;;;;;5035627;28;20036;-87
2021/12/23 09:44:47;;;;;;;38.30;20.30;;;1.20;99.90;;;;;;5035580;28;20100;-86
2021/12/23 09:47:13;;;;;;;33.10;19.33;;;1.20;99.90;;;;;;4985810;28;20416;-87
2021/12/23 09:49:39;;;;;;;37.55;19.75;;;1.20;99.90;;;;;;5005481;28;20133;-86
2021/12/23 09:52:06;;;;;;;40.38;21.75;;;1.20;99.90;;;;;;4981787;28;20133;-87
2021/12/23 09:54:37;;;;;;;35.38;18.98;;;1.20;99.90;;;;;;5013422;28;20030;-87
2021/12/23 09:57:03;;;;;;;36.78;19.38;;;1.30;99.90;;;;;;5010117;28;20144;-86
2021/12/23 09:59:29;;;;;;;35.85;20.10;;;1.30;99.90;;;;;;5030959;28;20026;-88
2021/12/23 10:01:55;;;;;;;36.58;18.48;;;1.30;99.90;;;;;;4992977;28;20037;-89
2021/12/23 10:04:21;;;;;;;44.03;20.80;;;1.30;99.90;;;;;;5026702;28;20036;-86
2021/12/23 10:06:51;;;;;;;37.17;20.33;;;1.30;99.90;;;;;;5016092;28;20112;-87
2021/12/23 10:09:37;;;;;;;35.10;19.20;;;1.40;99.90;;;;;;5052720;28;20048;-86
2021/12/23 10:12:58;;;;;;;34.83;19.38;;;1.40;99.90;;;;;;5054964;28;20273;-86
2021/12/23 10:31:32;;;;;;;38.95;20.52;;;1.60;99.90;;;;;;5073882;28;20039;-86
2021/12/23 10:37:15;;;;;;;38.33;18.55;;;1.70;99.90;;;;;;5077624;28;20035;-86
2021/12/23 10:39:50;;;;;;;36.72;19.77;;;1.70;99.90;;;;;;5060357;28;20107;-86
2021/12/23 10:42:23;;;;;;;39.60;19.70;;;1.70;99.90;;;;;;5060522;28;20066;-86
2021/12/23 10:45:00;;;;;;;35.55;20.10;;;1.80;99.90;;;;;;5059960;28;20461;-86
2021/12/23 10:48:03;;;;;;;36.63;19.63;;;1.80;99.90;;;;;;5078098;28;20024;-86
2021/12/23 10:53:04;;;;;;;35.60;18.90;;;1.90;99.90;;;;;;5077481;28;20464;-86
2021/12/23 10:58:16;;;;;;;35.15;19.10;;;2.00;99.90;;;;;;5078394;28;20106;-86
2021/12/23 11:00:49;;;;;;;39.72;20.55;;;2.00;99.90;;;;;;5010685;28;20021;-87
2021/12/23 11:03:31;;;;;;;34.42;18.77;;;2.10;99.90;;;;;;5019577;28;20133;-86
2021/12/23 11:06:16;;;;;;;37.85;19.70;;;2.10;99.90;;;;;;5042386;28;20032;-87
2021/12/23 11:43:52;;;;;;;33.80;17.38;;;2.60;99.90;;;;;;5048548;28;20032;-86
2021/12/23 11:46:23;;;;;;;37.60;20.83;;;2.60;99.90;;;;;;5039682;28;20029;-87
2021/12/23 11:48:53;;;;;;;43.42;21.23;;;2.70;99.90;;;;;;5053675;28;20024;-86
2021/12/23 11:51:28;;;;;;;37.47;20.45;;;2.70;99.90;;;;;;5037145;28;20013;-88
2021/12/23 11:53:54;;;;;;;35.35;19.95;;;2.70;99.90;;;;;;5035331;28;20099;-85
2021/12/23 11:56:21;;;;;;;35.30;19.27;;;2.80;99.90;;;;;;5019200;28;20521;-87
2021/12/23 11:58:48;;;;;;;35.10;18.60;;;2.80;99.90;;;;;;5002591;28;20025;-87
2021/12/23 12:01:26;;;;;;;35.88;19.45;;;2.90;99.90;;;;;;5002577;28;20025;-87
2021/12/23 12:04:06;;;;;;;34.40;19.25;;;2.90;99.90;;;;;;5036539;28;20018;-87
2021/12/23 12:06:45;;;;;;;42.10;20.83;;;2.90;99.90;;;;;;5010316;28;20187;-86
2021/12/23 12:09:10;;;;;;;36.50;19.55;;;3.00;99.90;;;;;;5035334;28;20790;-88
2021/12/23 12:11:36;;;;;;;35.78;19.30;;;3.00;99.90;;;;;;5036606;28;20033;-88
2021/12/23 12:14:02;;;;;;;33.70;18.33;;;3.10;99.90;;;;;;5023871;28;20484;-88
2021/12/23 12:16:36;;;;;;;34.15;17.70;;;3.10;99.90;;;;;;5021377;28;20021;-87
2021/12/23 12:19:10;;;;;;;36.22;18.23;;;3.20;99.90;;;;;;5035198;28;20491;-87
2021/12/23 12:21:41;;;;;;;36.33;19.90;;;3.20;99.90;;;;;;5055500;28;20087;-89
2021/12/23 12:24:20;;;;;;;38.95;19.45;;;3.20;99.90;;;;;;5034898;28;20588;-94
2021/12/23 12:27:02;;;;;;;34.65;18.85;;;3.30;99.90;;;;;;5032822;28;20100;-87
2021/12/23 12:29:39;;;;;;;37.85;19.98;;;3.30;99.90;;;;;;5011400;28;20056;-86
2021/12/23 12:32:05;;;;;;;38.67;19.77;;;3.30;99.90;;;;;;5037633;28;20420;-87
2021/12/23 12:34:37;;;;;;;34.40;17.98;;;3.30;99.90;;;;;;5037509;28;20017;-87
2021/12/23 12:37:07;;;;;;;36.40;19.40;;;3.30;99.90;;;;;;5037639;28;20024;-88
2021/12/23 12:39:40;;;;;;;38.42;19.30;;;3.30;99.90;;;;;;5034985;28;20127;-87
2021/12/23 12:42:26;;;;;;;32.05;17.42;;;3.40;99.90;;;;;;5027090;28;20017;-88
2021/12/23 12:45:03;;;;;;;37.35;19.27;;;3.40;99.90;;;;;;5050762;28;20046;-87
2021/12/23 12:47:32;;;;;;;36.83;18.40;;;3.50;99.90;;;;;;5028649;28;20452;-87
2021/12/23 12:50:12;;;;;;;36.13;17.83;;;3.50;99.90;;;;;;5019368;28;20410;-86
2021/12/23 12:52:44;;;;;;;33.90;19.27;;;3.60;99.90;;;;;;5018482;28;20040;-87
2021/12/23 12:55:17;;;;;;;34.33;18.60;;;3.60;99.90;;;;;;5017936;28;20031;-87
2021/12/23 12:57:54;;;;;;;36.42;18.20;;;3.60;99.90;;;;;;5019379;28;20492;-87
2021/12/23 13:00:35;;;;;;;31.40;17.08;;;3.60;99.90;;;;;;5019970;28;20039;-88
2021/12/23 13:03:13;;;;;;;34.15;18.17;;;3.70;99.90;;;;;;5019188;28;20025;-87
2021/12/23 13:05:46;;;;;;;35.35;19.17;;;3.70;99.90;;;;;;5035512;28;20021;-88
2021/12/23 13:08:30;;;;;;;32.33;18.15;;;3.70;99.90;;;;;;5014230;28;20032;-87
2021/12/23 13:11:16;;;;;;;34.30;18.88;;;3.70;99.90;;;;;;5012439;28;20044;-90
2021/12/23 13:13:45;;;;;;;32.80;18.38;;;3.70;99.90;;;;;;5017935;28;20029;-87
2021/12/23 13:16:23;;;;;;;33.92;18.08;;;3.80;99.90;;;;;;5035033;28;20024;-88
2021/12/23 13:19:18;;;;;;;34.70;18.55;;;3.80;99.90;;;;;;5034612;28;20029;-88
2021/12/23 13:21:50;;;;;;;35.63;19.88;;;3.80;99.90;;;;;;5036939;28;20036;-87
2021/12/23 13:24:19;;;;;;;35.28;18.95;;;3.90;99.90;;;;;;5037017;28;20032;-88
2021/12/23 13:26:46;;;;;;;35.25;18.83;;;3.90;99.90;;;;;;5037129;28;20032;-88
2021/12/23 13:29:13;;;;;;;38.95;19.02;;;3.90;99.90;;;;;;5037228;28;20017;-88
2021/12/23 13:31:43;;;;;;;36.28;20.10;;;4.00;99.90;;;;;;5020478;28;20109;-87
2021/12/23 13:34:29;;;;;;;35.65;19.35;;;4.00;99.90;;;;;;5037106;28;20021;-87
2021/12/23 13:36:58;;;;;;;39.00;19.00;;;4.10;99.90;;;;;;5037840;28;20017;-87
2021/12/23 13:39:28;;;;;;;34.63;18.58;;;4.10;99.90;;;;;;5035969;28;20025;-87
2021/12/23 13:42:02;;;;;;;37.90;19.83;;;4.10;99.90;;;;;;5054192;28;20021;-87
2021/12/23 13:44:40;;;;;;;37.53;19.98;;;4.20;99.90;;;;;;5037880;28;20032;-87
2021/12/23 13:47:14;;;;;;;35.40;19.33;;;4.20;99.90;;;;;;5054665;28;20479;-87
2021/12/23 13:49:47;;;;;;;36.72;20.40;;;4.20;99.90;;;;;;5036065;28;20057;-87
2021/12/23 13:52:31;;;;;;;32.35;18.25;;;4.30;99.90;;;;;;5053424;28;20036;-88
2021/12/23 13:55:04;;;;;;;39.58;20.30;;;4.30;99.90;;;;;;5053862;28;20020;-87
2021/12/23 13:57:37;;;;;;;32.33;18.45;;;4.40;99.90;;;;;;5036592;28;20029;-87
2021/12/23 14:00:33;;;;;;;32.17;18.38;;;4.30;99.90;;;;;;5036619;28;20025;-87
2021/12/23 14:03:06;;;;;;;37.10;19.45;;;4.40;99.90;;;;;;5024652;28;20033;-90
2021/12/23 14:05:33;;;;;;;37.58;18.17;;;4.40;99.90;;;;;;5034241;28;20018;-87
2021/12/23 14:08:04;;;;;;;37.55;19.60;;;4.40;99.90;;;;;;5036036;28;20087;-87
2021/12/23 14:10:30;;;;;;;;;;;4.40;99.90;;;;;;5066063;28;20064;-87
2021/12/23 14:13:11;;;;;;;36.20;18.92;;;4.40;99.90;;;;;;5056377;28;19909;-85